createdAt,value
2022-11-20T00:03:49.606Z,5.20
2022-11-20T00:07:51.383Z,5.30
2022-11-20T00:11:52.457Z,5.20
2022-11-20T00:16:01.657Z,5.20
2022-11-20T00:20:03.327Z,5.00
2022-11-20T00:24:05.063Z,5.00
2022-11-20T00:28:06.235Z,5.10
2022-11-20T00:32:07.310Z,5.20
2022-11-20T00:36:11.533Z,5.10
2022-11-20T00:40:13.208Z,5.00
2022-11-20T00:44:14.390Z,4.90
2022-11-20T00:48:15.444Z,5.00
2022-11-20T00:52:16.612Z,5.10
2022-11-20T00:56:19.418Z,5.20
2022-11-20T01:00:20.481Z,5.20
2022-11-20T01:04:21.719Z,5.20
2022-11-20T01:08:22.772Z,5.20
2022-11-20T01:12:23.871Z,5.10
2022-11-20T01:16:28.243Z,5.20
2022-11-20T01:20:29.415Z,5.20
2022-11-20T01:24:30.529Z,5.30
2022-11-20T01:28:32.390Z,5.20
2022-11-20T01:32:33.567Z,5.20
2022-11-20T01:36:37.233Z,5.10
2022-11-20T01:40:38.315Z,5.20
2022-11-20T01:44:55.018Z,5.20
2022-11-20T01:49:21.370Z,5.20
2022-11-20T01:53:26.591Z,5.20
2022-11-20T01:57:31.463Z,5.20
2022-11-20T02:01:32.872Z,5.10
2022-11-20T02:05:56.273Z,5.10
2022-11-20T02:09:58.911Z,5.10
2022-11-20T02:14:00.648Z,5.20
2022-11-20T02:18:02.228Z,5.30
2022-11-20T02:22:10.146Z,5.30
2022-11-20T02:26:14.762Z,5.10
2022-11-20T02:30:16.493Z,5.40
2022-11-20T02:34:17.665Z,5.40
2022-11-20T02:38:18.864Z,5.30
2022-11-20T02:42:20.115Z,5.30
2022-11-20T02:46:21.293Z,5.30
2022-11-20T02:50:22.481Z,5.20
2022-11-20T02:54:24.551Z,5.20
2022-11-20T02:58:25.634Z,5.30
2022-11-20T03:02:31.402Z,5.30
2022-11-20T03:06:32.870Z,5.30
2022-11-20T03:10:33.943Z,5.40
2022-11-20T03:14:35.017Z,5.40
2022-11-20T03:18:36.276Z,5.50
2022-11-20T03:22:37.667Z,5.60
2022-11-20T03:26:39.314Z,5.60
2022-11-20T03:30:41.175Z,5.50
2022-11-20T03:34:42.394Z,5.50
2022-11-20T03:38:44.118Z,5.50
2022-11-20T03:42:45.217Z,5.60
2022-11-20T03:46:46.302Z,5.50
2022-11-20T03:50:48.112Z,5.60
2022-11-20T03:54:49.256Z,5.70
2022-11-20T03:58:50.916Z,5.70
2022-11-20T04:02:51.971Z,5.60
2022-11-20T04:06:53.071Z,5.60
2022-11-20T04:10:54.196Z,5.80
2022-11-20T04:14:55.371Z,5.70
2022-11-20T04:19:02.401Z,5.70
2022-11-20T04:23:03.498Z,5.70
2022-11-20T04:27:04.550Z,5.70
2022-11-20T04:31:14.879Z,5.70
2022-11-20T04:35:16.045Z,5.70
2022-11-20T04:39:17.384Z,5.80
2022-11-20T04:43:18.538Z,5.60
2022-11-20T04:47:19.832Z,5.60
2022-11-20T04:51:21.088Z,5.80
2022-11-20T04:55:22.186Z,5.90
2022-11-20T04:59:23.801Z,5.90
2022-11-20T05:03:25.138Z,5.90
2022-11-20T05:07:26.248Z,5.80
2022-11-20T05:11:29.306Z,5.80
2022-11-20T05:15:30.386Z,5.80
2022-11-20T05:19:31.570Z,5.90
2022-11-20T05:23:33.657Z,5.90
2022-11-20T05:27:35.033Z,5.90
2022-11-20T05:31:37.600Z,5.90
2022-11-20T05:35:38.773Z,5.90
2022-11-20T05:39:39.839Z,5.90
2022-11-20T05:43:43.305Z,5.90
2022-11-20T05:51:12.565Z,5.90
2022-11-20T05:55:13.776Z,5.90
2022-11-20T05:59:14.965Z,5.90
2022-11-20T06:03:16.171Z,5.90
2022-11-20T06:07:17.399Z,5.90
2022-11-20T06:11:18.879Z,5.90
2022-11-20T06:15:20.058Z,5.90
2022-11-20T06:19:21.555Z,5.90
2022-11-20T06:23:22.939Z,5.80
2022-11-20T06:27:24.135Z,5.90
2022-11-20T06:31:26.322Z,5.90
2022-11-20T06:35:27.610Z,5.80
2022-11-20T06:39:28.699Z,5.80
2022-11-20T06:43:30.075Z,5.70
2022-11-20T06:47:31.159Z,5.80
2022-11-20T06:51:32.371Z,5.70
2022-11-20T06:55:33.567Z,5.70
2022-11-20T06:59:34.858Z,5.80
2022-11-20T07:03:36.469Z,5.90
2022-11-20T07:07:37.752Z,5.70
2022-11-20T07:11:39.462Z,5.70
2022-11-20T07:15:40.632Z,5.70
2022-11-20T07:19:43.136Z,5.80
2022-11-20T07:23:44.360Z,5.80
2022-11-20T07:27:45.542Z,5.70
2022-11-20T07:31:46.740Z,5.70
2022-11-20T07:35:47.953Z,5.80
2022-11-20T07:39:49.145Z,5.60
2022-11-20T07:43:50.333Z,5.80
2022-11-20T07:47:51.829Z,5.90
2022-11-20T07:51:59.296Z,6.00
2022-11-20T07:56:02.976Z,5.90
2022-11-20T08:00:08.730Z,6.00
2022-11-20T08:04:10.006Z,6.00
2022-11-20T08:08:11.296Z,6.00
2022-11-20T08:12:39.845Z,6.00
2022-11-20T08:16:46.262Z,5.90
2022-11-20T08:20:47.448Z,5.80
2022-11-20T08:24:48.753Z,5.80
2022-11-20T08:28:55.876Z,5.90
2022-11-20T08:33:03.714Z,6.20
2022-11-20T08:37:04.915Z,6.40
2022-11-20T08:41:08.319Z,6.30
2022-11-20T08:45:09.771Z,6.10
2022-11-20T08:49:12.780Z,6.20
2022-11-20T08:53:13.944Z,6.50
2022-11-20T08:57:15.045Z,6.50
2022-11-20T09:01:16.240Z,6.60
2022-11-20T09:05:17.617Z,6.90
2022-11-20T09:09:19.466Z,6.70
2022-11-20T09:13:22.897Z,7.10
2022-11-20T09:17:24.102Z,7.20
2022-11-20T09:21:25.332Z,7.50
2022-11-20T09:25:26.778Z,7.50
2022-11-20T09:29:27.960Z,7.70
2022-11-20T09:33:29.073Z,7.70
2022-11-20T09:37:30.538Z,7.60
2022-11-20T09:41:41.822Z,7.50
2022-11-20T09:45:59.050Z,7.60
2022-11-20T09:50:25.583Z,7.70
2022-11-20T09:54:33.311Z,7.70
2022-11-20T09:58:44.185Z,7.70
2022-11-20T10:03:00.824Z,7.80
2022-11-20T10:07:31.357Z,7.70
2022-11-20T10:11:35.485Z,7.70
2022-11-20T10:15:58.836Z,7.60
2022-11-20T10:20:22.419Z,7.60
2022-11-20T10:24:44.368Z,7.50
2022-11-20T10:28:57.435Z,7.50
2022-11-20T10:32:58.873Z,7.50
2022-11-20T10:37:03.899Z,7.70
2022-11-20T10:41:24.598Z,7.80
2022-11-20T10:45:29.598Z,7.70
2022-11-20T10:49:33.399Z,7.80
2022-11-20T10:53:44.499Z,7.80
2022-11-20T10:58:04.777Z,7.90
2022-11-20T11:02:20.891Z,7.80
2022-11-20T11:06:34.920Z,7.70
2022-11-20T11:10:49.282Z,7.80
2022-11-20T11:14:56.722Z,7.50
2022-11-20T11:19:05.996Z,7.50
2022-11-20T11:23:11.388Z,7.50
2022-11-20T11:27:17.934Z,8.10
2022-11-20T11:31:24.102Z,8.30
2022-11-20T11:35:28.265Z,8.30
2022-11-20T11:39:31.590Z,8.10
2022-11-20T11:43:56.080Z,8.00
2022-11-20T11:48:00.678Z,8.10
2022-11-20T11:52:08.177Z,7.80
2022-11-20T11:56:11.562Z,8.00
2022-11-20T12:00:16.673Z,8.20
2022-11-20T12:04:30.778Z,8.20
2022-11-20T12:08:50.690Z,8.10
2022-11-20T12:12:55.678Z,8.10
2022-11-20T12:16:57.969Z,8.20
2022-11-20T12:21:02.965Z,8.30
2022-11-20T12:25:20.244Z,8.50
2022-11-20T12:29:31.150Z,8.50
2022-11-20T12:33:53.969Z,8.80
2022-11-20T12:38:25.031Z,8.80
2022-11-20T12:43:03.852Z,8.80
2022-11-20T12:47:25.756Z,8.90
2022-11-20T12:51:47.746Z,8.80
2022-11-20T12:55:58.963Z,9.00
2022-11-20T13:00:11.099Z,8.80
2022-11-20T13:04:19.064Z,8.90
2022-11-20T13:08:26.075Z,8.70
2022-11-20T13:12:43.432Z,8.40
2022-11-20T13:16:53.885Z,8.50
2022-11-20T13:20:55.301Z,8.70
2022-11-20T13:24:56.387Z,8.80
2022-11-20T13:29:12.193Z,8.80
2022-11-20T13:33:33.360Z,8.60
2022-11-20T13:37:36.937Z,8.30
2022-11-20T13:41:40.330Z,8.50
2022-11-20T13:45:41.512Z,8.10
2022-11-20T13:49:45.418Z,8.20
2022-11-20T13:53:55.453Z,8.00
2022-11-20T13:58:12.113Z,8.10
2022-11-20T14:02:18.693Z,8.20
2022-11-20T14:06:23.681Z,8.40
2022-11-20T14:10:31.808Z,8.40
2022-11-20T14:14:33.585Z,8.60
2022-11-20T14:18:34.672Z,8.50
2022-11-20T14:22:35.772Z,8.50
2022-11-20T14:26:40.156Z,8.40
2022-11-20T14:30:47.535Z,8.30
2022-11-20T14:34:50.724Z,8.20
2022-11-20T14:38:53.408Z,8.40
2022-11-20T14:42:55.220Z,8.60
2022-11-20T14:46:58.022Z,8.50
2022-11-20T14:50:59.324Z,8.50
2022-11-20T14:55:00.535Z,8.50
2022-11-20T14:59:01.772Z,8.30
2022-11-20T15:03:02.980Z,8.30
2022-11-20T15:07:04.626Z,8.40
2022-11-20T15:15:12.407Z,8.10
2022-11-20T15:19:21.060Z,8.30
2022-11-20T15:23:22.735Z,8.40
2022-11-20T15:27:24.120Z,8.40
2022-11-20T15:31:30.264Z,8.30
2022-11-20T15:35:31.459Z,8.20
2022-11-20T15:39:32.567Z,8.20
2022-11-20T15:43:34.095Z,8.20
2022-11-20T15:47:35.883Z,8.30
2022-11-20T15:51:40.383Z,8.40
2022-11-20T15:55:41.534Z,8.40
2022-11-20T15:59:42.719Z,8.40
2022-11-20T16:03:43.960Z,8.40
2022-11-20T16:07:45.141Z,9.50
2022-11-20T16:11:46.338Z,10.30
2022-11-20T16:15:57.355Z,10.90
2022-11-20T16:19:58.545Z,11.40
2022-11-20T16:24:05.473Z,11.50
2022-11-20T16:28:06.670Z,10.40
2022-11-20T16:32:08.959Z,9.60
2022-11-20T16:36:11.897Z,9.30
2022-11-20T16:40:12.954Z,9.10
2022-11-20T16:44:14.674Z,9.10
2022-11-20T16:48:16.670Z,8.90
2022-11-20T16:52:17.934Z,8.80
2022-11-20T16:56:21.081Z,8.70
2022-11-20T17:00:22.382Z,8.60
2022-11-20T17:04:23.654Z,8.50
2022-11-20T17:08:29.545Z,8.60
2022-11-20T17:12:30.675Z,8.70
2022-11-20T17:16:32.126Z,8.70
2022-11-20T17:20:33.293Z,8.80
2022-11-20T17:24:34.747Z,8.80
2022-11-20T17:28:37.434Z,8.60
2022-11-20T17:32:39.094Z,8.70
2022-11-20T17:36:45.265Z,8.60
2022-11-20T17:40:45.526Z,8.40
2022-11-20T17:44:46.700Z,8.30
2022-11-20T17:48:49.125Z,8.40
2022-11-20T17:52:50.308Z,8.30
2022-11-20T17:57:10.124Z,8.20
2022-11-20T18:01:11.388Z,8.20
2022-11-20T18:05:12.796Z,8.10
2022-11-20T18:09:14.470Z,8.30
2022-11-20T18:13:15.533Z,8.30
2022-11-20T18:17:16.706Z,8.30
2022-11-20T18:21:17.764Z,8.40
2022-11-20T18:25:18.845Z,8.20
2022-11-20T18:29:19.910Z,8.10
2022-11-20T18:33:25.450Z,8.10
2022-11-20T18:37:23.961Z,8.10
2022-11-20T18:41:46.169Z,8.00
2022-11-20T18:45:47.254Z,8.10
2022-11-20T18:49:51.722Z,7.90
2022-11-20T18:53:52.810Z,8.10
2022-11-20T18:57:54.612Z,8.10
2022-11-20T19:01:55.735Z,8.00
2022-11-20T19:05:56.975Z,8.00
2022-11-20T19:10:02.344Z,7.80
2022-11-20T19:14:01.282Z,7.70
2022-11-20T19:18:02.559Z,7.90
2022-11-20T19:22:03.941Z,7.80
2022-11-20T19:26:06.315Z,7.90
2022-11-20T19:30:08.609Z,7.90
2022-11-20T19:34:11.418Z,7.80
2022-11-20T19:38:12.632Z,7.80
2022-11-20T19:42:13.829Z,7.80
2022-11-20T19:46:17.470Z,7.80
2022-11-20T19:50:18.729Z,7.80
2022-11-20T19:54:19.857Z,7.90
2022-11-20T19:58:21.190Z,8.00
2022-11-20T20:02:22.381Z,8.10
2022-11-20T20:06:25.191Z,8.20
2022-11-20T20:10:27.021Z,8.00
2022-11-20T20:14:28.125Z,7.90
2022-11-20T20:18:29.386Z,7.80
2022-11-20T20:22:30.508Z,7.80
2022-11-20T20:26:32.039Z,8.00
2022-11-20T20:30:36.355Z,8.00
2022-11-20T20:34:37.463Z,8.00
2022-11-20T20:38:38.936Z,8.00
2022-11-20T20:42:40.026Z,7.80
2022-11-20T20:46:41.233Z,7.60
2022-11-20T20:50:42.834Z,7.80
2022-11-20T20:54:44.037Z,7.70
2022-11-20T20:58:45.347Z,7.80
2022-11-20T21:02:46.558Z,7.70
2022-11-20T21:06:47.730Z,7.80
2022-11-20T21:10:49.192Z,7.70
2022-11-20T21:14:50.466Z,7.90
2022-11-20T21:18:51.631Z,7.60
2022-11-20T21:22:52.870Z,7.60
2022-11-20T21:26:54.863Z,7.70
2022-11-20T21:31:17.841Z,7.50
2022-11-20T21:35:18.948Z,7.60
2022-11-20T21:39:21.231Z,7.50
2022-11-20T21:43:22.464Z,7.40
2022-11-20T21:47:23.755Z,7.40
2022-11-20T21:51:27.485Z,7.60
2022-11-20T21:55:28.791Z,7.60
2022-11-20T21:59:30.384Z,7.50
2022-11-20T22:03:31.706Z,7.60
2022-11-20T22:07:33.101Z,7.80
2022-11-20T22:11:34.573Z,7.80
2022-11-20T22:15:59.305Z,7.70
2022-11-20T22:19:39.092Z,7.70
2022-11-20T22:23:40.860Z,7.70
2022-11-20T22:27:42.109Z,7.60
2022-11-20T22:31:43.746Z,7.70
2022-11-20T22:35:44.884Z,7.90
2022-11-20T22:39:45.959Z,7.70
2022-11-20T22:43:47.371Z,7.80
2022-11-20T22:47:48.544Z,7.70
2022-11-20T22:51:49.633Z,7.80
2022-11-20T22:55:50.814Z,7.80
2022-11-20T22:59:52.182Z,7.70
2022-11-20T23:03:58.995Z,7.70
2022-11-20T23:08:00.069Z,7.90
2022-11-20T23:12:01.214Z,7.80
2022-11-20T23:16:05.403Z,7.80
2022-11-20T23:20:08.188Z,7.80
2022-11-20T23:24:09.789Z,7.80
2022-11-20T23:28:10.961Z,7.90
2022-11-20T23:32:12.035Z,7.90
2022-11-20T23:36:13.560Z,7.90
2022-11-20T23:40:14.790Z,8.00
2022-11-20T23:44:15.931Z,8.00
2022-11-20T23:48:18.240Z,7.90
2022-11-20T23:52:19.525Z,7.80
2022-11-20T23:56:20.694Z,8.00
